createdAt,value
2023-01-19T00:00:08.043Z,992.3
2023-01-19T00:01:11.551Z,992.3
2023-01-19T00:02:14.274Z,992.3
2023-01-19T00:03:17.411Z,992.3
2023-01-19T00:04:20.816Z,992.3
2023-01-19T00:05:23.488Z,992.3
2023-01-19T00:06:26.293Z,992.3
2023-01-19T00:07:30.147Z,992.3
2023-01-19T00:08:33.034Z,992.3
2023-01-19T00:09:36.192Z,992.3
2023-01-19T00:10:39.526Z,992.3
2023-01-19T00:11:42.606Z,992.3
2023-01-19T00:12:45.948Z,992.3
2023-01-19T00:13:49.819Z,992.3
2023-01-19T00:14:53.681Z,992.3
2023-01-19T00:15:57.240Z,992.3
2023-01-19T00:17:00.852Z,992.2
2023-01-19T00:18:03.695Z,992.3
2023-01-19T00:19:06.772Z,992.2
2023-01-19T00:20:09.727Z,992.3
2023-01-19T00:21:12.504Z,992.3
2023-01-19T00:22:15.635Z,992.3
2023-01-19T00:23:18.768Z,992.3
2023-01-19T00:24:21.871Z,992.4
2023-01-19T00:25:25.950Z,992.4
2023-01-19T00:26:28.655Z,992.4
2023-01-19T00:27:32.557Z,992.4
2023-01-19T00:28:35.783Z,992.4
2023-01-19T00:29:38.977Z,992.4
2023-01-19T00:30:42.501Z,992.4
2023-01-19T00:31:46.002Z,992.3
2023-01-19T00:32:49.431Z,992.4
2023-01-19T00:33:53.061Z,992.4
2023-01-19T00:34:56.760Z,992.4
2023-01-19T00:35:59.785Z,992.3
2023-01-19T00:37:02.330Z,992.2
2023-01-19T00:38:04.864Z,992.3
2023-01-19T00:39:07.887Z,992.3
2023-01-19T00:40:10.919Z,992.3
2023-01-19T00:41:13.883Z,992.3
2023-01-19T00:42:17.127Z,992.3
2023-01-19T00:43:19.968Z,992.3
2023-01-19T00:44:23.014Z,992.3
2023-01-19T00:45:26.465Z,992.3
2023-01-19T00:46:30.138Z,992.3
2023-01-19T00:47:32.564Z,992.3
2023-01-19T00:48:35.392Z,992.3
2023-01-19T00:49:38.796Z,992.3
2023-01-19T00:50:41.932Z,992.3
2023-01-19T00:51:44.907Z,992.3
2023-01-19T00:52:47.784Z,992.4
2023-01-19T00:53:50.867Z,992.4
2023-01-19T00:54:53.344Z,992.4
2023-01-19T00:55:57.072Z,992.4
2023-01-19T00:56:59.232Z,992.3
2023-01-19T00:58:02.276Z,992.4
2023-01-19T00:59:05.329Z,992.4
2023-01-19T01:00:08.474Z,992.3
2023-01-19T01:01:12.207Z,992.3
2023-01-19T01:02:17.026Z,992.4
2023-01-19T01:03:21.621Z,992.3
2023-01-19T01:04:25.761Z,992.4
2023-01-19T01:05:28.535Z,992.3
2023-01-19T01:06:31.261Z,992.3
2023-01-19T01:07:34.452Z,992.3
2023-01-19T01:08:38.139Z,992.2
2023-01-19T01:09:41.684Z,992.3
2023-01-19T01:10:44.380Z,992.4
2023-01-19T01:11:46.878Z,992.3
2023-01-19T01:12:58.749Z,992.3
2023-01-19T01:14:31.969Z,992.3
2023-01-19T01:15:35.121Z,992.4
2023-01-19T01:16:38.671Z,992.4
2023-01-19T01:17:42.727Z,992.3
2023-01-19T01:18:45.466Z,992.4
2023-01-19T01:19:48.216Z,992.4
2023-01-19T01:20:51.346Z,992.4
2023-01-19T01:21:57.565Z,992.4
2023-01-19T01:23:01.268Z,992.4
2023-01-19T01:24:06.346Z,992.5
2023-01-19T01:25:08.863Z,992.4
2023-01-19T01:26:12.313Z,992.4
2023-01-19T01:27:14.785Z,992.4
2023-01-19T01:28:18.172Z,992.4
2023-01-19T01:29:21.737Z,992.5
2023-01-19T01:30:25.182Z,992.4
2023-01-19T01:31:28.690Z,992.4
2023-01-19T01:32:32.613Z,992.4
2023-01-19T01:33:42.114Z,992.5
2023-01-19T01:34:45.182Z,992.4
2023-01-19T01:35:48.209Z,992.5
2023-01-19T01:36:51.031Z,992.4
2023-01-19T01:37:54.309Z,992.4
2023-01-19T01:38:57.101Z,992.4
2023-01-19T01:40:00.164Z,992.4
2023-01-19T01:41:03.175Z,992.4
2023-01-19T01:42:06.087Z,992.4
2023-01-19T01:43:09.458Z,992.4
2023-01-19T01:44:12.656Z,992.4
2023-01-19T01:45:15.833Z,992.4
2023-01-19T01:46:19.030Z,992.4
2023-01-19T01:47:22.962Z,992.4
2023-01-19T01:48:26.403Z,992.4
2023-01-19T01:49:30.217Z,992.4
2023-01-19T01:50:32.169Z,992.4
2023-01-19T01:51:35.355Z,992.4
2023-01-19T01:52:38.513Z,992.4
2023-01-19T01:53:41.884Z,992.3
2023-01-19T01:54:44.870Z,992.3
2023-01-19T01:55:47.310Z,992.3
2023-01-19T01:56:50.631Z,992.3
2023-01-19T01:57:54.696Z,992.3
2023-01-19T01:58:58.064Z,992.4
2023-01-19T02:00:00.784Z,992.3
2023-01-19T02:01:03.615Z,992.3
2023-01-19T02:02:07.190Z,992.4
2023-01-19T02:03:12.178Z,992.4
2023-01-19T02:04:16.246Z,992.4
2023-01-19T02:05:19.982Z,992.3
2023-01-19T02:06:22.415Z,992.3
2023-01-19T02:07:25.795Z,992.3
2023-01-19T02:08:29.247Z,992.3
2023-01-19T02:09:32.702Z,992.3
2023-01-19T02:10:35.222Z,992.3
2023-01-19T02:11:37.763Z,992.3
2023-01-19T02:12:41.498Z,992.2
2023-01-19T02:13:43.835Z,992.2
2023-01-19T02:14:47.323Z,992.2
2023-01-19T02:15:50.030Z,992.3
2023-01-19T02:16:53.734Z,992.2
2023-01-19T02:17:57.422Z,992.3
2023-01-19T02:19:00.784Z,992.3
2023-01-19T02:20:03.893Z,992.3
2023-01-19T02:21:08.017Z,992.3
2023-01-19T02:22:11.042Z,992.3
2023-01-19T02:23:14.149Z,992.4
2023-01-19T02:24:17.058Z,992.4
2023-01-19T02:25:19.587Z,992.4
2023-01-19T02:26:23.522Z,992.4
2023-01-19T02:27:26.989Z,992.4
2023-01-19T02:28:30.037Z,992.4
2023-01-19T02:29:32.758Z,992.4
2023-01-19T02:30:36.164Z,992.4
2023-01-19T02:31:39.481Z,992.4
2023-01-19T02:32:42.547Z,992.3
2023-01-19T02:33:45.676Z,992.4
2023-01-19T02:34:48.948Z,992.3
2023-01-19T02:35:52.443Z,992.4
2023-01-19T02:36:56.508Z,992.3
2023-01-19T02:37:59.072Z,992.4
2023-01-19T02:39:01.384Z,992.4
2023-01-19T02:40:04.128Z,992.3
2023-01-19T02:41:07.571Z,992.3
2023-01-19T02:42:10.897Z,992.4
2023-01-19T02:43:14.181Z,992.4
2023-01-19T02:44:16.631Z,992.4
2023-01-19T02:45:20.488Z,992.4
2023-01-19T02:46:23.496Z,992.4
2023-01-19T02:47:26.478Z,992.4
2023-01-19T02:48:29.641Z,992.4
2023-01-19T02:49:32.752Z,992.4
2023-01-19T02:50:35.466Z,992.5
2023-01-19T02:51:39.236Z,992.4
2023-01-19T02:52:42.648Z,992.4
2023-01-19T02:53:45.065Z,992.4
2023-01-19T02:54:48.056Z,992.4
2023-01-19T02:55:51.401Z,992.4
2023-01-19T02:56:54.454Z,992.3
2023-01-19T02:57:57.620Z,992.4
2023-01-19T02:59:00.351Z,992.4
2023-01-19T03:00:02.862Z,992.4
2023-01-19T03:01:05.788Z,992.4
2023-01-19T03:02:09.623Z,992.4
2023-01-19T03:03:13.480Z,992.4
2023-01-19T03:04:16.888Z,992.4
2023-01-19T03:05:19.975Z,992.4
2023-01-19T03:06:23.204Z,992.3
2023-01-19T03:07:26.761Z,992.3
2023-01-19T03:08:30.619Z,992.4
2023-01-19T03:09:33.636Z,992.4
2023-01-19T03:10:37.002Z,992.3
2023-01-19T03:11:39.460Z,992.3
2023-01-19T03:12:42.277Z,992.4
2023-01-19T03:13:45.582Z,992.4
2023-01-19T03:14:48.987Z,992.4
2023-01-19T03:15:53.002Z,992.4
2023-01-19T03:16:56.736Z,992.4
2023-01-19T03:18:00.010Z,992.4
2023-01-19T03:19:03.457Z,992.3
2023-01-19T03:20:07.186Z,992.3
2023-01-19T03:21:10.307Z,992.3
2023-01-19T03:22:13.731Z,992.3
2023-01-19T03:23:17.622Z,992.3
2023-01-19T03:24:20.920Z,992.3
2023-01-19T03:25:23.790Z,992.3
2023-01-19T03:26:26.416Z,992.3
2023-01-19T03:27:28.890Z,992.3
2023-01-19T03:28:32.009Z,992.3
2023-01-19T03:29:35.255Z,992.3
2023-01-19T03:30:38.504Z,992.2
2023-01-19T03:31:42.214Z,992.3
2023-01-19T03:32:44.886Z,992.3
2023-01-19T03:33:48.623Z,992.3
2023-01-19T03:34:50.862Z,992.3
2023-01-19T03:35:53.866Z,992.3
2023-01-19T03:36:57.030Z,992.2
2023-01-19T03:38:00.117Z,992.2
2023-01-19T03:39:03.998Z,992.3
2023-01-19T03:40:07.454Z,992.2
2023-01-19T03:41:11.652Z,992.3
2023-01-19T03:42:14.483Z,992.3
2023-01-19T03:43:17.640Z,992.2
2023-01-19T03:44:20.791Z,992.2
2023-01-19T03:45:23.902Z,992.3
2023-01-19T03:46:27.789Z,992.3
2023-01-19T03:47:31.352Z,992.3
2023-01-19T03:48:34.640Z,992.4
2023-01-19T03:49:37.984Z,992.3
2023-01-19T03:50:40.702Z,992.3
2023-01-19T03:51:43.429Z,992.4
2023-01-19T03:52:46.514Z,992.4
2023-01-19T03:53:49.567Z,992.3
2023-01-19T03:54:53.052Z,992.4
2023-01-19T03:55:56.173Z,992.4
2023-01-19T03:56:58.589Z,992.4
2023-01-19T03:58:02.032Z,992.4
2023-01-19T03:59:05.485Z,992.3
2023-01-19T04:00:08.515Z,992.3
2023-01-19T04:01:11.508Z,992.3
2023-01-19T04:02:15.740Z,992.3
2023-01-19T04:03:20.134Z,992.3
2023-01-19T04:04:23.427Z,992.3
2023-01-19T04:05:26.309Z,992.3
2023-01-19T04:06:29.342Z,992.3
2023-01-19T04:07:32.620Z,992.3
2023-01-19T04:08:36.778Z,992.3
2023-01-19T04:09:40.120Z,992.3
2023-01-19T04:10:43.693Z,992.3
2023-01-19T04:11:47.409Z,992.4
2023-01-19T04:12:49.652Z,992.3
2023-01-19T04:13:53.460Z,992.2
2023-01-19T04:14:56.391Z,992.3
2023-01-19T04:15:59.165Z,992.4
2023-01-19T04:17:02.778Z,992.3
2023-01-19T04:18:05.331Z,992.4
2023-01-19T04:19:08.357Z,992.3
2023-01-19T04:20:11.782Z,992.3
2023-01-19T04:21:15.129Z,992.3
2023-01-19T04:22:17.562Z,992.4
2023-01-19T04:23:20.628Z,992.3
2023-01-19T04:24:23.309Z,992.3
2023-01-19T04:25:26.742Z,992.2
2023-01-19T04:26:30.512Z,992.3
2023-01-19T04:27:33.925Z,992.3
2023-01-19T04:28:36.750Z,992.3
2023-01-19T04:29:39.067Z,992.3
2023-01-19T04:30:42.058Z,992.2
2023-01-19T04:31:45.512Z,992.2
2023-01-19T04:32:48.574Z,992.3
2023-01-19T04:33:51.874Z,992.3
2023-01-19T04:34:54.949Z,992.4
2023-01-19T04:35:58.012Z,992.3
2023-01-19T04:37:01.352Z,992.3
2023-01-19T04:38:04.428Z,992.3
2023-01-19T04:39:07.523Z,992.3
2023-01-19T04:40:10.885Z,992.3
2023-01-19T04:41:14.011Z,992.3
2023-01-19T04:42:17.482Z,992.2
2023-01-19T04:43:21.353Z,992.3
2023-01-19T04:44:24.177Z,992.3
2023-01-19T04:45:27.523Z,992.2
2023-01-19T04:46:30.636Z,992.3
2023-01-19T04:47:33.562Z,992.2
2023-01-19T04:48:37.098Z,992.3
2023-01-19T04:49:43.292Z,992.2
2023-01-19T04:50:47.043Z,992.2
2023-01-19T04:51:50.222Z,992.2
2023-01-19T04:52:53.224Z,992.3
2023-01-19T04:53:55.990Z,992.2
2023-01-19T04:54:59.607Z,992.2
2023-01-19T04:56:03.023Z,992.2
2023-01-19T04:57:06.005Z,992.2
2023-01-19T04:58:09.908Z,992.2
2023-01-19T04:59:13.679Z,992.3
2023-01-19T05:00:16.737Z,992.2
2023-01-19T05:01:20.104Z,992.2
2023-01-19T05:02:24.550Z,992.2
2023-01-19T05:03:27.721Z,992.3
2023-01-19T05:04:30.753Z,992.2
2023-01-19T05:05:33.807Z,992.2
2023-01-19T05:06:36.904Z,992.2
2023-01-19T05:07:39.926Z,992.2
2023-01-19T05:08:45.696Z,992.2
2023-01-19T05:09:48.350Z,992.1
2023-01-19T05:10:51.469Z,992.1
2023-01-19T05:11:54.945Z,992.3
2023-01-19T05:12:59.225Z,992.3
2023-01-19T05:14:04.866Z,992.1
2023-01-19T05:15:08.337Z,992.2
2023-01-19T05:16:11.718Z,992.2
2023-01-19T05:17:14.715Z,992.2
2023-01-19T05:18:17.541Z,992.2
2023-01-19T05:19:20.053Z,992.2
2023-01-19T05:20:22.770Z,992.2
2023-01-19T05:21:25.844Z,992.3
2023-01-19T05:22:29.244Z,992.2
2023-01-19T05:23:32.685Z,992.3
2023-01-19T05:24:35.853Z,992.2
2023-01-19T05:25:39.160Z,992.2
2023-01-19T05:26:42.542Z,992.2
2023-01-19T05:27:46.263Z,992.2
2023-01-19T05:28:49.713Z,992.2
2023-01-19T05:29:53.611Z,992.2
2023-01-19T05:30:56.570Z,992.1
2023-01-19T05:32:00.622Z,992.1
2023-01-19T05:33:04.427Z,992.2
2023-01-19T05:34:07.260Z,992.3
2023-01-19T05:35:09.151Z,992.1
2023-01-19T05:36:12.581Z,992.2
2023-01-19T05:37:15.628Z,992.1
2023-01-19T05:38:35.229Z,992.1
2023-01-19T05:39:39.475Z,992.1
2023-01-19T05:40:42.478Z,992.2
2023-01-19T05:41:45.516Z,992.1
2023-01-19T05:42:49.196Z,992.1
2023-01-19T05:43:52.593Z,992.2
2023-01-19T05:44:56.017Z,992.1
2023-01-19T05:46:00.227Z,992.1
2023-01-19T05:47:03.255Z,992.1
2023-01-19T05:48:05.964Z,992.1
2023-01-19T05:49:11.948Z,992.1
2023-01-19T05:50:15.145Z,992.1
2023-01-19T05:51:18.341Z,992.2
2023-01-19T05:52:20.778Z,992.1
2023-01-19T05:53:23.658Z,992.2
2023-01-19T05:54:26.184Z,992.2
2023-01-19T05:55:29.091Z,992.1
2023-01-19T05:56:32.222Z,992.2
2023-01-19T05:57:35.533Z,992.2
2023-01-19T05:58:38.786Z,992.1
2023-01-19T05:59:41.627Z,992.2
2023-01-19T06:00:45.407Z,992.1
2023-01-19T06:01:49.389Z,992.1
2023-01-19T06:02:52.918Z,992.2
2023-01-19T06:03:56.661Z,992.1
2023-01-19T06:04:59.186Z,992.1
2023-01-19T06:06:01.916Z,992.1
2023-01-19T06:07:05.164Z,992.1
2023-01-19T06:08:08.392Z,992.2
2023-01-19T06:09:11.439Z,992.1
2023-01-19T06:10:15.176Z,992.1
2023-01-19T06:11:17.945Z,992.2
2023-01-19T06:12:21.297Z,992.1
2023-01-19T06:13:23.762Z,992.2
2023-01-19T06:14:26.445Z,992.2
2023-01-19T06:15:30.186Z,992.1
2023-01-19T06:16:33.473Z,992.2
2023-01-19T06:17:37.622Z,992.2
2023-01-19T06:18:41.081Z,992.2
2023-01-19T06:19:44.449Z,992.2
2023-01-19T06:20:48.484Z,992.1
2023-01-19T06:21:51.346Z,992.2
2023-01-19T06:22:54.186Z,992.1
2023-01-19T06:23:57.256Z,992.2
2023-01-19T06:25:00.620Z,992.2
2023-01-19T06:26:04.343Z,992.3
2023-01-19T06:27:06.844Z,992.2
2023-01-19T06:28:09.940Z,992.3
2023-01-19T06:29:13.321Z,992.3
2023-01-19T06:30:16.366Z,992.3
2023-01-19T06:31:19.221Z,992.3
2023-01-19T06:32:23.286Z,992.4
2023-01-19T06:33:27.288Z,992.4
2023-01-19T06:34:30.449Z,992.2
2023-01-19T06:35:33.706Z,992.4
2023-01-19T06:36:36.835Z,992.4
2023-01-19T06:37:39.948Z,992.5
2023-01-19T06:38:43.435Z,992.5
2023-01-19T06:39:47.089Z,992.5
2023-01-19T06:40:50.458Z,992.5
2023-01-19T06:41:53.262Z,992.5
2023-01-19T06:42:56.346Z,992.5
2023-01-19T06:43:59.897Z,992.5
2023-01-19T06:45:02.988Z,992.5
2023-01-19T06:46:06.007Z,992.5
2023-01-19T06:47:16.627Z,992.5
2023-01-19T06:48:20.397Z,992.5
2023-01-19T06:49:24.283Z,992.6
2023-01-19T06:50:27.928Z,992.6
2023-01-19T06:51:31.255Z,992.6
2023-01-19T06:52:34.646Z,992.6
2023-01-19T06:53:36.894Z,992.6
2023-01-19T06:54:40.589Z,992.6
2023-01-19T06:55:43.737Z,992.5
2023-01-19T06:56:47.093Z,992.6
2023-01-19T06:57:50.706Z,992.6
2023-01-19T06:58:53.161Z,992.7
2023-01-19T06:59:56.206Z,992.7
2023-01-19T07:00:59.500Z,992.7
2023-01-19T07:02:28.632Z,992.7
2023-01-19T07:03:33.655Z,992.8
2023-01-19T07:04:37.423Z,992.7
2023-01-19T07:05:41.120Z,992.8
2023-01-19T07:06:44.808Z,992.8
2023-01-19T07:07:48.167Z,992.8
2023-01-19T07:08:51.337Z,992.8
2023-01-19T07:09:54.626Z,992.8
2023-01-19T07:11:31.514Z,992.8
2023-01-19T07:12:36.063Z,992.9
2023-01-19T07:13:39.592Z,992.8
2023-01-19T07:14:43.617Z,992.8
2023-01-19T07:15:47.028Z,992.8
2023-01-19T07:16:50.437Z,992.9
2023-01-19T07:17:54.399Z,992.8
2023-01-19T07:18:58.205Z,992.9
2023-01-19T07:20:01.426Z,992.9
2023-01-19T07:21:04.574Z,992.9
2023-01-19T07:22:08.051Z,992.9
2023-01-19T07:23:11.054Z,993
2023-01-19T07:24:14.577Z,992.9
2023-01-19T07:25:18.044Z,992.9
2023-01-19T07:26:21.206Z,993
2023-01-19T07:27:25.379Z,992.9
2023-01-19T07:28:28.546Z,993
2023-01-19T07:29:32.332Z,992.9
2023-01-19T07:30:35.923Z,992.9
2023-01-19T07:31:40.245Z,993
2023-01-19T07:32:44.147Z,993
2023-01-19T07:33:47.562Z,993
2023-01-19T07:34:51.319Z,993
2023-01-19T07:35:54.901Z,993
2023-01-19T07:36:58.553Z,993
2023-01-19T07:38:01.595Z,993
2023-01-19T07:39:05.262Z,993
2023-01-19T07:40:08.522Z,993
2023-01-19T07:41:12.113Z,993
2023-01-19T07:42:15.454Z,993.1
2023-01-19T07:43:18.890Z,993
2023-01-19T07:44:22.140Z,993
2023-01-19T07:45:28.301Z,993.1
2023-01-19T07:46:31.670Z,993
2023-01-19T07:47:34.372Z,993.1
2023-01-19T07:48:36.904Z,993.1
2023-01-19T07:49:40.190Z,993.1
2023-01-19T07:50:44.343Z,993.1
2023-01-19T07:51:48.487Z,993.1
2023-01-19T07:52:51.616Z,993.2
2023-01-19T07:53:54.908Z,993.2
2023-01-19T07:54:58.338Z,993.2
2023-01-19T07:56:01.767Z,993.2
2023-01-19T07:57:04.492Z,993.1
2023-01-19T07:58:07.587Z,993.1
2023-01-19T07:59:11.574Z,993.2
2023-01-19T08:00:15.023Z,993.2
2023-01-19T08:01:18.703Z,993.3
2023-01-19T08:02:23.378Z,993.2
2023-01-19T08:03:27.031Z,993.2
2023-01-19T08:04:29.919Z,993.2
2023-01-19T08:05:34.284Z,993.2
2023-01-19T08:06:37.860Z,993.2
2023-01-19T08:07:41.867Z,993.3
2023-01-19T08:08:45.047Z,993.2
2023-01-19T08:09:48.056Z,993.2
2023-01-19T08:10:51.316Z,993.3
2023-01-19T08:11:54.826Z,993.4
2023-01-19T08:12:57.949Z,993.3
2023-01-19T08:14:03.236Z,993.3
2023-01-19T08:15:10.371Z,993.3
2023-01-19T08:16:13.834Z,993.4
2023-01-19T08:17:16.347Z,993.3
2023-01-19T08:18:19.355Z,993.4
2023-01-19T08:19:23.073Z,993.4
2023-01-19T08:20:26.834Z,993.4
2023-01-19T08:21:29.644Z,993.4
2023-01-19T08:22:32.487Z,993.4
2023-01-19T08:23:36.147Z,993.4
2023-01-19T08:24:39.540Z,993.4
2023-01-19T08:25:43.334Z,993.4
2023-01-19T08:26:47.052Z,993.4
2023-01-19T08:27:50.328Z,993.4
2023-01-19T08:28:54.083Z,993.4
2023-01-19T08:29:57.583Z,993.5
2023-01-19T08:31:20.987Z,993.5
2023-01-19T08:32:28.984Z,993.5
2023-01-19T08:33:31.661Z,993.4
2023-01-19T08:34:35.044Z,993.4
2023-01-19T08:35:38.492Z,993.5
2023-01-19T08:36:42.540Z,993.5
2023-01-19T08:37:46.612Z,993.6
2023-01-19T08:38:50.274Z,993.5
2023-01-19T08:39:53.964Z,993.6
2023-01-19T08:40:57.348Z,993.6
2023-01-19T08:42:00.421Z,993.6
2023-01-19T08:43:04.030Z,993.6
2023-01-19T08:44:07.875Z,993.7
2023-01-19T08:45:11.577Z,993.6
2023-01-19T08:46:14.755Z,993.7
2023-01-19T08:47:18.224Z,993.7
2023-01-19T08:48:21.742Z,993.7
2023-01-19T08:49:24.699Z,993.7
2023-01-19T08:50:28.213Z,993.6
2023-01-19T08:51:31.885Z,993.7
2023-01-19T08:52:35.001Z,993.7
2023-01-19T08:53:38.679Z,993.6
2023-01-19T08:54:42.827Z,993.6
2023-01-19T08:55:45.947Z,993.7
2023-01-19T08:56:49.316Z,993.6
2023-01-19T08:57:52.795Z,993.7
2023-01-19T08:59:10.894Z,993.8
2023-01-19T09:08:08.869Z,993.7
2023-01-19T09:09:12.493Z,993.7
2023-01-19T09:10:16.310Z,993.7
2023-01-19T09:11:19.545Z,993.8
2023-01-19T09:12:23.559Z,993.7
2023-01-19T09:13:27.019Z,993.7
2023-01-19T09:14:30.380Z,993.7
2023-01-19T09:15:34.010Z,993.7
2023-01-19T09:16:37.786Z,993.9
2023-01-19T09:17:40.591Z,993.8
2023-01-19T09:18:43.957Z,993.8
2023-01-19T09:19:47.154Z,993.8
2023-01-19T09:20:50.549Z,993.8
2023-01-19T09:21:53.918Z,993.8
2023-01-19T09:22:56.785Z,993.9
2023-01-19T09:23:59.913Z,993.9
2023-01-19T09:25:03.255Z,993.9
2023-01-19T09:26:06.898Z,993.9
2023-01-19T09:27:09.664Z,993.9
2023-01-19T09:28:13.163Z,993.9
2023-01-19T09:29:16.277Z,993.9
2023-01-19T09:30:19.385Z,993.9
2023-01-19T09:31:23.745Z,993.9
2023-01-19T09:32:28.073Z,993.9
2023-01-19T09:33:31.453Z,993.9
2023-01-19T09:34:35.492Z,993.9
2023-01-19T09:35:39.206Z,993.9
2023-01-19T09:36:42.618Z,993.9
2023-01-19T09:37:45.967Z,993.9
2023-01-19T09:38:49.934Z,993.9
2023-01-19T09:39:53.378Z,993.8
2023-01-19T09:40:57.395Z,993.9
2023-01-19T09:42:01.380Z,993.9
2023-01-19T09:43:04.893Z,993.9
2023-01-19T09:44:08.572Z,993.9
2023-01-19T09:45:12.773Z,993.9
2023-01-19T09:46:16.777Z,994
2023-01-19T09:47:20.641Z,994
2023-01-19T09:48:24.086Z,993.9
2023-01-19T09:49:26.851Z,993.9
2023-01-19T09:50:29.705Z,993.9
2023-01-19T09:51:33.912Z,993.9
2023-01-19T09:52:36.726Z,993.9
2023-01-19T09:53:39.716Z,993.9
2023-01-19T09:54:43.443Z,993.9
2023-01-19T09:55:46.319Z,993.8
2023-01-19T09:56:53.038Z,993.9
2023-01-19T09:57:56.650Z,993.8
2023-01-19T09:59:00.563Z,993.8
2023-01-19T10:00:03.932Z,993.8
2023-01-19T10:01:07.414Z,993.8
2023-01-19T10:02:10.950Z,993.8
2023-01-19T10:03:14.414Z,993.8
2023-01-19T10:04:17.503Z,993.8
2023-01-19T10:05:20.787Z,993.8
2023-01-19T10:06:24.230Z,993.9
2023-01-19T10:07:27.858Z,993.8
2023-01-19T10:08:31.243Z,993.8
2023-01-19T10:09:34.618Z,993.8
2023-01-19T10:10:37.404Z,993.8
2023-01-19T10:11:53.513Z,993.9
2023-01-19T10:12:57.365Z,993.8
2023-01-19T10:14:02.907Z,993.8
2023-01-19T10:15:06.054Z,993.9
2023-01-19T10:16:09.273Z,993.8
2023-01-19T10:17:11.882Z,993.7
2023-01-19T10:18:15.332Z,993.7
2023-01-19T10:19:17.843Z,993.7
2023-01-19T10:20:21.211Z,993.7
2023-01-19T10:21:24.767Z,993.7
2023-01-19T10:22:28.989Z,993.6
2023-01-19T10:23:32.956Z,993.7
2023-01-19T10:24:36.842Z,993.7
2023-01-19T10:25:40.633Z,993.7
2023-01-19T10:26:45.025Z,993.7
2023-01-19T10:27:47.308Z,993.7
2023-01-19T10:28:51.221Z,993.8
2023-01-19T10:29:55.745Z,993.7
2023-01-19T10:30:59.348Z,993.7
2023-01-19T10:32:04.113Z,993.7
2023-01-19T10:33:07.548Z,993.7
2023-01-19T10:34:11.304Z,993.7
2023-01-19T10:35:14.631Z,993.6
2023-01-19T10:36:18.087Z,993.6
2023-01-19T10:37:20.994Z,993.6
2023-01-19T10:38:24.589Z,993.7
2023-01-19T10:39:28.443Z,993.7
2023-01-19T10:40:32.258Z,993.7
2023-01-19T10:41:35.830Z,993.7
2023-01-19T10:42:40.068Z,993.7
2023-01-19T10:43:43.588Z,993.7
2023-01-19T10:44:47.204Z,993.7
2023-01-19T10:45:51.675Z,993.7
2023-01-19T10:46:54.885Z,993.6
2023-01-19T10:47:58.361Z,993.6
2023-01-19T10:49:02.071Z,993.6
2023-01-19T10:50:04.566Z,993.6
2023-01-19T10:51:08.133Z,993.6
2023-01-19T10:52:11.843Z,993.6
2023-01-19T10:53:14.634Z,993.6
2023-01-19T10:54:17.819Z,993.6
2023-01-19T10:55:21.607Z,993.6
2023-01-19T10:56:25.184Z,993.7
2023-01-19T10:57:28.675Z,993.6
2023-01-19T10:58:32.554Z,993.6
2023-01-19T10:59:35.416Z,993.6
2023-01-19T11:00:39.051Z,993.6
2023-01-19T11:01:44.193Z,993.6
2023-01-19T11:02:48.408Z,993.6
2023-01-19T11:03:51.675Z,993.6
2023-01-19T11:04:55.212Z,993.6
2023-01-19T11:05:58.838Z,993.6
2023-01-19T11:07:01.338Z,993.6
2023-01-19T11:08:04.717Z,993.6
2023-01-19T11:09:08.005Z,993.6
2023-01-19T11:10:11.130Z,993.7
2023-01-19T11:11:13.674Z,993.7
2023-01-19T11:12:16.819Z,993.7
2023-01-19T11:13:19.975Z,993.6
2023-01-19T11:14:23.323Z,993.6
2023-01-19T11:15:26.619Z,993.6
2023-01-19T11:16:30.559Z,993.7
2023-01-19T11:17:34.887Z,993.6
2023-01-19T11:18:38.328Z,993.6
2023-01-19T11:19:41.743Z,993.6
2023-01-19T11:20:44.257Z,993.6
2023-01-19T11:21:47.606Z,993.6
2023-01-19T11:22:51.287Z,993.6
2023-01-19T11:23:55.275Z,993.7
2023-01-19T11:24:58.401Z,993.7
2023-01-19T11:26:01.936Z,993.7
2023-01-19T11:27:05.315Z,993.6
2023-01-19T11:28:08.644Z,993.6
2023-01-19T11:29:12.003Z,993.6
2023-01-19T11:30:15.092Z,993.6
2023-01-19T11:31:18.763Z,993.6
2023-01-19T11:32:23.235Z,993.6
2023-01-19T11:33:27.082Z,993.7
2023-01-19T11:34:29.797Z,993.7
2023-01-19T11:35:33.891Z,993.6
2023-01-19T11:36:37.039Z,993.7
2023-01-19T11:37:40.329Z,993.7
2023-01-19T11:38:43.793Z,993.7
2023-01-19T11:39:47.556Z,993.8
2023-01-19T11:40:51.367Z,993.7
2023-01-19T11:41:54.806Z,993.7
2023-01-19T11:42:58.185Z,993.7
2023-01-19T11:44:02.408Z,993.6
2023-01-19T11:45:05.119Z,993.7
2023-01-19T11:46:08.647Z,993.7
2023-01-19T11:47:11.809Z,993.7
2023-01-19T11:48:14.934Z,993.7
2023-01-19T11:49:18.706Z,993.7
2023-01-19T11:50:22.087Z,993.6
2023-01-19T11:51:25.980Z,993.7
2023-01-19T11:52:29.334Z,993.7
2023-01-19T11:53:32.439Z,993.7
2023-01-19T11:54:35.537Z,993.8
2023-01-19T11:55:38.538Z,993.8
2023-01-19T11:56:42.003Z,993.8
2023-01-19T11:57:45.797Z,993.9
2023-01-19T11:58:49.195Z,993.8
2023-01-19T11:59:52.304Z,993.9
2023-01-19T12:00:55.463Z,993.9
2023-01-19T12:01:59.329Z,993.9
2023-01-19T12:03:02.614Z,993.8
2023-01-19T12:04:06.335Z,993.9
2023-01-19T12:05:10.586Z,993.8
2023-01-19T12:06:13.687Z,993.9
2023-01-19T12:07:16.698Z,993.9
2023-01-19T12:08:19.856Z,993.9
2023-01-19T12:09:23.817Z,993.9
2023-01-19T12:10:27.808Z,993.9
2023-01-19T12:11:31.180Z,993.9
2023-01-19T12:12:34.709Z,993.9
2023-01-19T12:13:38.377Z,993.9
2023-01-19T12:14:41.398Z,993.9
2023-01-19T12:15:44.408Z,993.9
2023-01-19T12:16:47.227Z,993.9
2023-01-19T12:17:50.925Z,994
2023-01-19T12:18:53.523Z,994
2023-01-19T12:19:56.965Z,994
2023-01-19T12:21:04.448Z,994
2023-01-19T12:22:08.156Z,994
2023-01-19T12:23:11.521Z,994.1
2023-01-19T12:24:14.565Z,994
2023-01-19T12:25:18.241Z,994.1
2023-01-19T12:26:21.620Z,994.1
2023-01-19T12:27:25.353Z,994.1
2023-01-19T12:28:28.711Z,994.1
2023-01-19T12:29:31.594Z,994.1
2023-01-19T12:30:35.373Z,994.1
2023-01-19T12:31:39.320Z,994.1
2023-01-19T12:32:43.091Z,994.1
2023-01-19T12:33:46.790Z,994.1
2023-01-19T12:34:50.549Z,994.2
2023-01-19T12:35:54.653Z,994.1
2023-01-19T12:36:58.547Z,994
2023-01-19T12:38:02.062Z,994.1
2023-01-19T12:39:05.529Z,994.1
2023-01-19T12:40:08.332Z,994.1
2023-01-19T12:41:11.347Z,994.1
2023-01-19T12:42:14.153Z,994.1
2023-01-19T12:43:17.238Z,994.1
2023-01-19T12:44:20.330Z,994.1
2023-01-19T12:45:24.057Z,994.1
2023-01-19T12:46:27.582Z,994.1
2023-01-19T12:47:31.904Z,994.2
2023-01-19T12:48:34.716Z,994.1
2023-01-19T12:49:37.546Z,994.2
2023-01-19T12:50:41.335Z,994.2
2023-01-19T12:51:45.104Z,994.2
2023-01-19T12:52:48.969Z,994.2
2023-01-19T12:53:52.047Z,994.3
2023-01-19T12:54:55.103Z,994.3
2023-01-19T12:55:58.843Z,994.3
2023-01-19T12:57:02.220Z,994.3
2023-01-19T12:58:05.893Z,994.4
2023-01-19T12:59:09.053Z,994.3
2023-01-19T13:00:12.841Z,994.3
2023-01-19T13:01:16.385Z,994.3
2023-01-19T13:02:20.440Z,994.4
2023-01-19T13:03:23.830Z,994.3
2023-01-19T13:04:27.015Z,994.4
2023-01-19T13:05:33.648Z,994.4
2023-01-19T13:06:37.102Z,994.4
2023-01-19T13:07:40.570Z,994.4
2023-01-19T13:08:44.777Z,994.4
2023-01-19T13:09:48.182Z,994.4
2023-01-19T13:10:51.166Z,994.5
2023-01-19T13:12:01.314Z,994.4
2023-01-19T13:13:04.420Z,994.5
2023-01-19T13:14:07.769Z,994.4
2023-01-19T13:15:10.824Z,994.4
2023-01-19T13:16:13.992Z,994.5
2023-01-19T13:17:18.097Z,994.5
2023-01-19T13:18:21.730Z,994.4
2023-01-19T13:19:24.855Z,994.4
2023-01-19T13:20:28.240Z,994.4
2023-01-19T13:21:32.261Z,994.4
2023-01-19T13:22:36.011Z,994.4
2023-01-19T13:23:38.913Z,994.4
2023-01-19T13:24:42.799Z,994.4
2023-01-19T13:25:45.978Z,994.4
2023-01-19T13:26:49.592Z,994.5
2023-01-19T13:27:52.678Z,994.4
2023-01-19T13:28:55.714Z,994.5
2023-01-19T13:29:59.440Z,994.4
2023-01-19T13:31:05.511Z,994.4
2023-01-19T13:32:08.858Z,994.5
2023-01-19T13:33:12.204Z,994.5
2023-01-19T13:34:15.306Z,994.5
2023-01-19T13:35:18.367Z,994.5
2023-01-19T13:36:21.233Z,994.5
2023-01-19T13:37:24.652Z,994.5
2023-01-19T13:38:27.534Z,994.6
2023-01-19T13:39:31.326Z,994.6
2023-01-19T13:40:35.535Z,994.6
2023-01-19T13:41:39.328Z,994.6
2023-01-19T13:42:43.000Z,994.6
2023-01-19T13:43:46.101Z,994.6
2023-01-19T13:44:49.521Z,994.6
2023-01-19T13:45:54.072Z,994.6
2023-01-19T13:46:57.533Z,994.7
2023-01-19T13:48:00.964Z,994.7
2023-01-19T13:49:03.719Z,994.7